Aeroporto :
LOGIN :

Iscrizione | Disclaimer

   EN    FR    IT 

 










Sommario :    VFR   VFR Marginale   IFR   IFR Intensivo   IFR Molto Intensivo
Visibilità : 
Base nubi : 
>= 8 km
>= 3000ft
5 / 8 km
1000 / 3000 ft
1500m / 5 km
500 / 1000 ft
800 / 1500m
200 / 500 ft
< 800m
< 200 ft
Simboli :   Temporali  Nebbia  Neve Forte  Precipitazioni Forti  Vento > 20 kt
SIGMETs :   Varie  Temporali  Ghiacco  Turbolenza  Onda orograficha  Ceneri Vulcaniche






- Altitudine del aeroporto : 33 ft
- Codice IATA : PLQ


EYPA - Palanga

ULTIMO METAR :
  • 101020Z AUTO 30004KT 210V360 9999 FEW150/// 08/03 Q1024

METARs OBSOLETI :
  • 100950Z AUTO 26003KT 190V360 9999 NCD 08/03 Q1024
  • 100920Z AUTO 27004KT 210V330 9999 NCD 08/02 Q1024
  • 100850Z AUTO 29003KT 220V340 9999 FEW140/// 08/02 Q1024
  • 100820Z AUTO VRB03KT 9999 NCD 08/03 Q1024
  • 100750Z AUTO VRB04KT 9999 NCD 08/03 Q1024

TAF TAF EYPA
Valido dal 10 a 06 ore il 11 a 06 ore UTC


100500Z 1006/1106 VRB04KT 9000 NSC
TEMPO 1009/1015 31014KT
TEMPO 1018/1024 3000 BR SCT005
TEMPO 1100/1106 0300 FG VV002



MetMap, La meteo Aeronautica in un colpo d'occhio ! - Copyright ORBIFLY Dicembre 2007 - Disclaimer

ORBIFLY MET'MAP TEAM :

Programmazione e sviluppo : Alexandra Zaïnal
Concezione : Baudouin d'Aumeries
Aiuto per la programmazione : Marc-Olivier Méhu
Supporto tecnico e logistico : Manuel Goepfert
Aiuto per la traduzione : Arnaldo La Scala

Contatto : metmap@orbifly.com




FONTI E CREDITI :

   NOAA